Time;durP1;ratioP1;P1;durP2;ratioP2;P2;SDS_P1;SDS_P2;PMS_P1;PMS_P2;Temp;Humidity;BMP_temperature;BMP_pressure;BME280_temperature;BME280_humidity;BME280_pressure;Samples;Min_cycle;Max_cycle;Signal;HPM_P1;HPM_P2
2023/09/14 00:00:42;;;;;;;7.80;4.70;;;21.00;53.80;;;;;;5034381;28;20037;-79
2023/09/14 00:03:08;;;;;;;6.63;4.63;;;21.00;53.90;;;;;;5016870;28;20034;-79
2023/09/14 00:05:41;;;;;;;6.60;4.50;;;21.00;53.90;;;;;;5016948;28;20384;-80
2023/09/14 00:08:07;;;;;;;6.77;5.03;;;20.90;53.80;;;;;;5016404;28;20065;-80
2023/09/14 00:10:32;;;;;;;11.68;4.75;;;20.90;53.90;;;;;;5024346;28;20041;-79
2023/09/14 00:13:00;;;;;;;7.22;4.55;;;20.90;53.90;;;;;;5018303;28;20034;-80
2023/09/14 00:15:26;;;;;;;6.25;4.25;;;20.90;54.00;;;;;;5031098;28;20439;-80
2023/09/14 00:17:52;;;;;;;6.72;4.05;;;20.90;54.00;;;;;;5028251;28;20064;-80
2023/09/14 00:20:23;;;;;;;6.25;4.40;;;20.90;54.10;;;;;;5026529;28;20030;-80
2023/09/14 00:22:50;;;;;;;7.72;4.40;;;20.80;54.10;;;;;;5033002;28;20467;-80
2023/09/14 00:25:22;;;;;;;7.25;4.32;;;20.80;54.10;;;;;;5035911;28;20029;-81
2023/09/14 00:27:48;;;;;;;6.18;4.30;;;20.80;54.20;;;;;;5027940;28;20034;-80
2023/09/14 00:30:14;;;;;;;6.28;4.40;;;20.80;54.20;;;;;;5016450;28;20077;-80
2023/09/14 00:32:40;;;;;;;6.05;4.15;;;20.70;54.20;;;;;;5016118;28;20030;-80
2023/09/14 00:35:07;;;;;;;5.32;4.43;;;20.70;54.30;;;;;;5018858;28;20121;-80
2023/09/14 00:37:33;;;;;;;7.63;3.97;;;20.70;54.40;;;;;;5030862;28;20084;-80
2023/09/14 00:39:59;;;;;;;7.68;4.07;;;20.60;54.30;;;;;;5034939;28;20108;-80
2023/09/14 00:42:24;;;;;;;6.43;4.10;;;20.60;54.40;;;;;;5015050;28;20128;-80
2023/09/14 00:44:51;;;;;;;6.15;4.25;;;20.60;54.50;;;;;;5016407;28;20021;-80
2023/09/14 00:47:16;;;;;;;6.47;4.22;;;20.50;54.70;;;;;;5014957;28;20026;-80
2023/09/14 00:49:42;;;;;;;7.10;4.25;;;20.50;54.50;;;;;;5016049;28;20171;-79
2023/09/14 00:52:10;;;;;;;6.35;4.22;;;20.50;54.50;;;;;;5016762;28;20422;-80
2023/09/14 00:54:38;;;;;;;7.70;4.25;;;20.50;54.60;;;;;;5035872;28;20026;-80
2023/09/14 00:57:04;;;;;;;5.22;4.00;;;20.50;54.60;;;;;;5035561;28;20026;-79
2023/09/14 00:59:31;;;;;;;6.80;4.00;;;20.40;54.60;;;;;;5035608;28;20029;-80
2023/09/14 01:01:57;;;;;;;5.10;4.13;;;20.50;54.70;;;;;;5034537;28;20084;-80
2023/09/14 01:04:22;;;;;;;6.13;3.83;;;20.40;54.60;;;;;;5035637;28;20029;-79
2023/09/14 01:06:49;;;;;;;4.97;3.90;;;20.40;54.60;;;;;;5029885;28;20045;-80
2023/09/14 01:09:15;;;;;;;5.63;3.80;;;20.40;54.60;;;;;;5033216;28;20028;-79
2023/09/14 01:11:41;;;;;;;5.80;3.83;;;20.40;54.60;;;;;;5034091;28;20038;-80
2023/09/14 01:14:11;;;;;;;6.32;3.45;;;20.40;54.70;;;;;;5033242;28;20100;-80
2023/09/14 01:16:46;;;;;;;6.82;3.90;;;20.40;54.70;;;;;;5017565;28;20487;-80
2023/09/14 01:19:33;;;;;;;5.75;4.00;;;20.40;54.70;;;;;;5032616;28;20029;-79
2023/09/14 01:22:36;;;;;;;5.40;4.10;;;20.30;54.70;;;;;;5021710;28;20030;-80
2023/09/14 01:25:31;;;;;;;5.00;3.88;;;20.30;54.70;;;;;;5015191;28;20033;-80
2023/09/14 01:28:10;;;;;;;6.03;3.78;;;20.30;54.70;;;;;;5026790;28;20038;-80
2023/09/14 01:30:37;;;;;;;4.78;3.40;;;20.30;54.70;;;;;;5032450;28;20033;-81
2023/09/14 01:33:05;;;;;;;5.07;3.85;;;20.30;54.70;;;;;;5034787;28;20037;-80
2023/09/14 01:35:37;;;;;;;4.80;3.60;;;20.30;54.70;;;;;;5020054;28;20030;-80
2023/09/14 01:38:03;;;;;;;7.10;3.50;;;20.30;54.70;;;;;;5027123;28;20508;-80
2023/09/14 01:40:31;;;;;;;6.30;3.60;;;20.30;54.70;;;;;;5026444;28;20038;-79
2023/09/14 01:42:58;;;;;;;5.47;3.67;;;20.20;54.70;;;;;;5025710;28;20033;-80
2023/09/14 01:45:23;;;;;;;4.70;3.50;;;20.30;54.70;;;;;;5015881;28;20040;-80
2023/09/14 01:47:52;;;;;;;6.13;3.80;;;20.20;54.70;;;;;;5020112;28;20108;-80
2023/09/14 01:50:18;;;;;;;5.43;3.42;;;20.20;54.70;;;;;;5032841;28;20124;-80
2023/09/14 01:52:43;;;;;;;5.30;3.30;;;20.20;54.70;;;;;;5027916;28;20101;-80
2023/09/14 01:55:10;;;;;;;5.38;3.65;;;20.20;54.70;;;;;;5027644;28;20052;-80
2023/09/14 01:57:35;;;;;;;6.07;3.38;;;20.20;54.70;;;;;;5033595;28;20480;-80
2023/09/14 02:00:01;;;;;;;5.00;3.90;;;20.20;54.70;;;;;;5034115;28;20067;-80
2023/09/14 02:02:27;;;;;;;5.85;3.72;;;20.20;54.70;;;;;;5031138;28;20371;-78
2023/09/14 02:04:53;;;;;;;5.47;3.60;;;20.20;54.70;;;;;;5028938;28;20030;-80
2023/09/14 02:07:18;;;;;;;5.68;3.72;;;20.20;54.70;;;;;;5016889;28;20057;-80
2023/09/14 02:09:44;;;;;;;5.20;3.60;;;20.20;54.80;;;;;;5032618;28;20467;-79
2023/09/14 02:12:10;;;;;;;4.82;3.60;;;20.20;54.80;;;;;;5033766;28;20100;-79
2023/09/14 02:14:35;;;;;;;5.60;3.70;;;20.20;54.80;;;;;;5031465;28;20029;-79
2023/09/14 02:17:01;;;;;;;5.72;3.47;;;20.20;54.80;;;;;;5015298;28;20056;-80
2023/09/14 02:19:26;;;;;;;5.75;3.63;;;20.20;54.80;;;;;;5031240;28;20029;-79
2023/09/14 02:21:52;;;;;;;4.95;3.83;;;20.10;54.90;;;;;;5013828;28;20358;-80
2023/09/14 02:24:17;;;;;;;5.07;3.50;;;20.10;54.90;;;;;;5016151;28;20033;-80
2023/09/14 02:26:43;;;;;;;7.03;3.90;;;20.10;54.90;;;;;;5024697;28;20034;-80
2023/09/14 02:29:09;;;;;;;6.47;3.70;;;20.10;55.00;;;;;;5016924;28;20029;-80
2023/09/14 02:31:34;;;;;;;4.78;3.45;;;20.10;55.00;;;;;;5033853;28;20488;-80
2023/09/14 02:34:00;;;;;;;4.70;3.53;;;20.10;55.00;;;;;;5020728;28;20091;-80
2023/09/14 02:36:26;;;;;;;4.57;3.55;;;20.00;55.00;;;;;;5033784;28;20160;-80
2023/09/14 02:38:52;;;;;;;5.00;3.83;;;20.00;55.10;;;;;;5024919;28;20021;-80
2023/09/14 02:41:18;;;;;;;5.95;3.60;;;20.00;55.10;;;;;;5014050;28;20037;-80
2023/09/14 02:43:44;;;;;;;5.18;3.90;;;20.00;55.20;;;;;;5013968;28;20022;-79
2023/09/14 02:46:09;;;;;;;5.20;3.50;;;20.00;55.20;;;;;;5014276;28;20030;-80
2023/09/14 02:48:35;;;;;;;5.40;3.47;;;20.00;55.20;;;;;;5013811;28;20032;-79
2023/09/14 02:51:00;;;;;;;5.32;3.80;;;20.00;55.20;;;;;;5022246;28;20029;-80
2023/09/14 02:53:26;;;;;;;5.78;3.88;;;20.00;55.20;;;;;;5020933;28;20038;-80
2023/09/14 02:55:52;;;;;;;4.63;3.55;;;20.00;55.20;;;;;;5014001;28;20080;-80
2023/09/14 02:58:18;;;;;;;6.97;3.58;;;20.00;55.20;;;;;;5013909;28;20030;-80
2023/09/14 03:00:43;;;;;;;5.10;3.75;;;20.00;55.30;;;;;;5013929;28;20038;-81
2023/09/14 03:03:09;;;;;;;5.38;3.67;;;20.00;55.30;;;;;;5014075;28;20369;-79
2023/09/14 03:05:35;;;;;;;5.03;3.45;;;20.00;55.30;;;;;;5013811;28;20030;-81
2023/09/14 03:08:01;;;;;;;7.85;3.70;;;20.00;55.30;;;;;;5025763;28;20037;-79
2023/09/14 03:10:27;;;;;;;4.70;3.42;;;20.00;55.40;;;;;;5020530;28;20077;-78
2023/09/14 03:12:52;;;;;;;4.45;3.63;;;19.90;55.40;;;;;;5013476;28;20057;-80
2023/09/14 03:15:18;;;;;;;5.00;3.50;;;19.90;55.40;;;;;;5033792;28;20029;-79
2023/09/14 03:17:44;;;;;;;6.22;3.60;;;19.90;55.40;;;;;;5027380;28;20379;-80
2023/09/14 03:20:13;;;;;;;4.93;3.90;;;19.90;55.40;;;;;;5017612;28;20045;-79
2023/09/14 03:22:39;;;;;;;5.97;4.20;;;19.90;55.40;;;;;;5033372;28;20026;-79
2023/09/14 03:25:06;;;;;;;6.20;5.00;;;19.90;55.40;;;;;;5017678;28;20033;-78
2023/09/14 03:27:32;;;;;;;6.15;4.82;;;19.90;55.40;;;;;;5029283;28;20029;-80
2023/09/14 03:29:58;;;;;;;6.95;5.03;;;19.90;55.40;;;;;;5017318;28;20038;-80
2023/09/14 03:32:24;;;;;;;7.00;4.80;;;19.90;55.50;;;;;;5017056;28;20038;-79
2023/09/14 03:34:50;;;;;;;5.65;4.63;;;19.90;55.50;;;;;;5017244;28;20088;-79
2023/09/14 03:37:15;;;;;;;6.65;4.65;;;19.90;55.60;;;;;;5018731;28;20507;-79
2023/09/14 03:39:45;;;;;;;6.60;4.65;;;19.90;55.60;;;;;;5036013;28;20438;-85
2023/09/14 03:42:11;;;;;;;5.75;4.60;;;19.90;55.60;;;;;;5035692;28;20460;-81
2023/09/14 03:44:37;;;;;;;5.93;4.25;;;19.90;55.60;;;;;;5024192;28;20038;-82
2023/09/14 03:47:03;;;;;;;5.72;3.95;;;19.90;55.60;;;;;;5032164;28;20476;-73
2023/09/14 03:49:28;;;;;;;5.22;4.07;;;19.90;55.70;;;;;;5035826;28;20109;-75
2023/09/14 03:51:54;;;;;;;9.23;4.45;;;19.90;56.00;;;;;;5025918;28;20037;-75
2023/09/14 03:54:20;;;;;;;6.47;4.38;;;20.00;56.00;;;;;;5019635;28;20025;-75
2023/09/14 03:56:45;;;;;;;5.28;4.22;;;20.00;55.90;;;;;;5019240;28;20471;-76
2023/09/14 03:59:11;;;;;;;7.32;4.80;;;20.00;55.90;;;;;;5015499;28;20461;-81
2023/09/14 04:01:36;;;;;;;7.47;4.05;;;20.00;55.80;;;;;;5016818;28;20038;-83
2023/09/14 04:04:03;;;;;;;6.20;4.30;;;20.00;55.90;;;;;;5021901;28;20036;-77
2023/09/14 04:06:29;;;;;;;7.50;4.60;;;20.00;55.90;;;;;;5034317;28;20029;-78
2023/09/14 04:08:55;;;;;;;7.25;4.38;;;20.00;55.90;;;;;;5023240;28;20032;-82
2023/09/14 04:11:20;;;;;;;5.93;4.47;;;20.00;56.60;;;;;;5036301;28;20034;-75
2023/09/14 04:13:47;;;;;;;5.45;4.28;;;20.00;56.00;;;;;;5035202;28;20396;-79
2023/09/14 04:16:13;;;;;;;10.73;4.50;;;20.00;56.00;;;;;;5035435;28;20022;-78
2023/09/14 04:18:39;;;;;;;6.57;4.32;;;20.00;56.10;;;;;;5035926;28;20037;-77
2023/09/14 04:21:05;;;;;;;13.35;4.75;;;20.10;56.10;;;;;;5016652;28;20084;-73
2023/09/14 04:23:31;;;;;;;8.15;4.68;;;20.10;56.20;;;;;;5030767;28;20120;-77
2023/09/14 04:25:58;;;;;;;11.15;5.18;;;20.10;56.20;;;;;;5015971;28;20121;-75
2023/09/14 04:28:24;;;;;;;9.15;5.10;;;20.10;56.30;;;;;;5016509;28;20077;-76
2023/09/14 04:30:53;;;;;;;8.07;4.90;;;20.10;56.30;;;;;;5023514;28;20041;-73
2023/09/14 04:33:18;;;;;;;9.95;5.00;;;20.10;56.40;;;;;;5035493;28;20037;-67
2023/09/14 04:35:45;;;;;;;5.88;4.22;;;20.10;56.40;;;;;;5034603;28;20033;-68
2023/09/14 04:38:10;;;;;;;8.52;4.10;;;20.10;56.90;;;;;;5022896;28;20077;-68
2023/09/14 04:40:47;;;;;;;8.50;5.35;;;20.20;57.20;;;;;;5034893;28;20080;-71
2023/09/14 04:43:14;;;;;;;8.40;4.82;;;20.40;57.40;;;;;;5039830;28;20032;-71
2023/09/14 04:45:40;;;;;;;6.25;4.43;;;20.50;57.50;;;;;;5039901;28;20048;-71
2023/09/14 04:48:06;;;;;;;8.38;4.85;;;20.60;57.60;;;;;;5045460;28;20471;-72
2023/09/14 04:50:33;;;;;;;7.85;4.95;;;20.60;57.50;;;;;;5042370;28;20033;-72
2023/09/14 04:52:58;;;;;;;7.05;4.90;;;20.70;57.50;;;;;;5040152;28;20017;-69
2023/09/14 04:55:25;;;;;;;7.78;5.00;;;20.90;57.60;;;;;;5047804;28;20491;-71
2023/09/14 04:57:51;;;;;;;7.45;4.75;;;21.00;57.50;;;;;;5041977;28;20072;-70
2023/09/14 05:00:16;;;;;;;6.40;4.80;;;21.10;57.50;;;;;;5027760;28;20509;-70
2023/09/14 05:02:42;;;;;;;7.68;4.82;;;21.20;57.40;;;;;;5041067;28;20030;-70
2023/09/14 05:05:09;;;;;;;6.30;4.55;;;21.30;57.30;;;;;;5034783;28;20036;-72
2023/09/14 05:07:34;;;;;;;6.63;4.65;;;21.40;57.20;;;;;;5041245;28;20060;-71
2023/09/14 05:10:01;;;;;;;7.00;4.82;;;21.40;57.20;;;;;;5045179;28;20560;-72
2023/09/14 05:12:28;;;;;;;7.20;4.43;;;21.50;57.10;;;;;;5042203;28;20029;-71
2023/09/14 05:14:53;;;;;;;5.53;4.25;;;21.60;57.10;;;;;;5040718;28;20429;-71
2023/09/14 05:17:19;;;;;;;6.10;4.15;;;21.60;56.90;;;;;;5043988;28;20092;-72
2023/09/14 05:19:45;;;;;;;9.63;4.78;;;21.70;56.90;;;;;;5045422;28;20027;-71
2023/09/14 05:22:10;;;;;;;7.13;4.60;;;21.80;56.90;;;;;;5046229;28;20016;-71
2023/09/14 05:24:39;;;;;;;8.45;4.30;;;21.90;56.90;;;;;;5041348;28;20025;-71
2023/09/14 05:27:06;;;;;;;5.80;4.47;;;22.00;56.80;;;;;;5017721;28;20084;-72
2023/09/14 05:29:31;;;;;;;8.60;4.53;;;22.00;56.60;;;;;;5014793;28;20030;-70
2023/09/14 05:31:57;;;;;;;6.65;4.47;;;22.10;56.60;;;;;;5015181;28;20041;-70
2023/09/14 05:34:23;;;;;;;6.30;4.03;;;22.20;56.50;;;;;;5016102;28;20120;-69
2023/09/14 05:36:49;;;;;;;5.88;4.10;;;22.30;56.50;;;;;;5013622;28;20472;-69
2023/09/14 05:39:15;;;;;;;7.60;4.45;;;22.30;56.40;;;;;;5013665;28;20037;-69
2023/09/14 05:41:41;;;;;;;7.95;4.22;;;22.40;56.30;;;;;;5014920;28;20026;-71
2023/09/14 05:44:09;;;;;;;9.15;5.25;;;22.50;56.30;;;;;;5014450;28;20045;-71
2023/09/14 05:46:35;;;;;;;9.60;5.32;;;22.60;56.20;;;;;;5033493;28;20040;-71
2023/09/14 05:49:01;;;;;;;7.13;4.88;;;22.60;56.10;;;;;;5015348;28;20037;-70
2023/09/14 05:51:28;;;;;;;7.32;4.80;;;22.70;56.00;;;;;;5020329;28;20096;-71
2023/09/14 05:53:54;;;;;;;7.20;4.32;;;22.70;55.90;;;;;;5039134;28;20121;-72
2023/09/14 05:56:20;;;;;;;7.35;5.07;;;22.80;55.90;;;;;;5015199;28;20416;-72
2023/09/14 05:58:46;;;;;;;6.57;4.82;;;22.80;55.80;;;;;;5016020;28;20161;-71
2023/09/14 06:01:11;;;;;;;7.22;5.13;;;22.90;55.70;;;;;;5031009;28;20498;-71
2023/09/14 06:03:37;;;;;;;7.07;4.93;;;22.90;55.60;;;;;;5021493;28;20069;-71
2023/09/14 06:06:03;;;;;;;8.30;5.45;;;23.00;55.70;;;;;;5034300;28;20021;-72
2023/09/14 06:08:29;;;;;;;6.82;4.85;;;23.00;56.30;;;;;;5038185;28;20106;-76
2023/09/14 06:10:54;;;;;;;8.13;4.55;;;23.00;56.30;;;;;;5042698;28;20478;-69
2023/09/14 06:13:20;;;;;;;5.88;4.38;;;23.00;55.70;;;;;;5040060;28;20388;-69
2023/09/14 06:15:46;;;;;;;6.47;4.47;;;23.10;55.70;;;;;;5013100;28;20061;-70
2023/09/14 06:18:12;;;;;;;6.63;4.47;;;23.10;55.70;;;;;;5026180;28;20021;-70
2023/09/14 06:20:38;;;;;;;5.72;3.80;;;23.10;55.70;;;;;;5019745;28;20490;-71
2023/09/14 06:23:04;;;;;;;6.47;4.00;;;23.10;55.70;;;;;;5023490;28;20377;-70
2023/09/14 06:25:29;;;;;;;6.80;3.50;;;23.10;55.60;;;;;;5012592;28;20033;-70
2023/09/14 06:27:55;;;;;;;4.40;3.33;;;23.10;55.60;;;;;;5014261;28;20033;-70
2023/09/14 06:30:21;;;;;;;5.18;3.28;;;23.10;55.60;;;;;;5013961;28;20116;-69
2023/09/14 06:32:46;;;;;;;4.15;3.17;;;23.10;55.60;;;;;;5014141;28;20372;-70
2023/09/14 06:35:12;;;;;;;5.75;3.20;;;23.10;55.70;;;;;;5014295;28;20038;-69
2023/09/14 06:37:38;;;;;;;5.13;2.90;;;23.10;55.70;;;;;;5014050;28;20054;-70
2023/09/14 06:40:05;;;;;;;5.88;3.03;;;23.10;56.00;;;;;;5012576;28;20121;-69
2023/09/14 06:42:31;;;;;;;4.38;2.85;;;23.10;55.70;;;;;;5013364;28;20380;-69
2023/09/14 06:44:57;;;;;;;2.85;2.58;;;23.10;55.70;;;;;;5013516;28;20021;-70
2023/09/14 06:47:22;;;;;;;3.80;2.85;;;23.10;55.70;;;;;;5020442;28;20064;-69
2023/09/14 06:49:48;;;;;;;4.13;2.80;;;23.10;55.70;;;;;;5022413;28;20026;-70
2023/09/14 06:52:14;;;;;;;3.85;2.88;;;23.10;55.70;;;;;;5025793;28;20033;-70
2023/09/14 06:54:39;;;;;;;4.53;3.17;;;23.10;55.70;;;;;;5019496;28;20032;-70
2023/09/14 06:57:05;;;;;;;4.43;2.97;;;23.20;55.80;;;;;;5013813;28;20030;-70
2023/09/14 06:59:30;;;;;;;4.78;3.03;;;23.20;55.80;;;;;;5025885;28;20026;-72
2023/09/14 07:01:56;;;;;;;3.70;2.90;;;23.20;55.70;;;;;;5031181;28;20484;-70
2023/09/14 07:04:22;;;;;;;4.22;2.80;;;23.30;55.80;;;;;;5024630;28;20030;-69
2023/09/14 07:06:48;;;;;;;3.60;2.88;;;23.30;55.70;;;;;;5025916;28;20036;-69
2023/09/14 07:09:13;;;;;;;3.25;2.83;;;23.40;55.70;;;;;;5025551;28;20375;-69
2023/09/14 07:11:39;;;;;;;4.13;3.08;;;23.40;55.60;;;;;;5022705;28;20037;-70
2023/09/14 07:14:05;;;;;;;4.63;2.55;;;23.50;55.70;;;;;;5014265;28;20026;-70
2023/09/14 07:16:30;;;;;;;4.97;2.97;;;23.50;55.70;;;;;;5031699;28;20125;-69
2023/09/14 07:18:56;;;;;;;3.33;2.53;;;23.50;55.70;;;;;;5032176;28;20022;-69
2023/09/14 07:21:21;;;;;;;3.33;2.70;;;23.50;55.60;;;;;;5033144;28;20040;-70
2023/09/14 07:23:47;;;;;;;4.72;2.80;;;23.60;55.70;;;;;;5031671;28;20034;-70
2023/09/14 07:26:13;;;;;;;3.58;2.88;;;23.70;55.70;;;;;;5017921;28;20029;-71
2023/09/14 07:28:38;;;;;;;3.83;2.90;;;23.70;55.70;;;;;;5025380;28;20531;-71
2023/09/14 07:31:05;;;;;;;3.45;2.80;;;23.70;55.70;;;;;;5032517;28;20112;-69
2023/09/14 07:33:32;;;;;;;3.53;2.90;;;23.70;55.70;;;;;;5023932;28;20034;-70
2023/09/14 07:35:57;;;;;;;5.03;2.90;;;23.80;55.70;;;;;;5033283;28;20030;-71
2023/09/14 07:38:23;;;;;;;4.47;2.60;;;23.90;55.70;;;;;;5033943;28;20056;-73
2023/09/14 07:40:49;;;;;;;3.90;2.65;;;23.90;55.60;;;;;;5018605;28;20096;-74
2023/09/14 07:43:14;;;;;;;4.60;2.60;;;23.90;55.60;;;;;;5011107;28;20460;-73
2023/09/14 07:45:40;;;;;;;4.13;2.80;;;24.00;55.60;;;;;;5013340;28;20038;-73
2023/09/14 07:48:07;;;;;;;3.45;2.58;;;24.00;55.50;;;;;;5013320;28;20080;-73
2023/09/14 07:50:39;;;;;;;4.45;2.70;;;24.10;55.60;;;;;;5012375;28;20472;-74
2023/09/14 07:53:08;;;;;;;3.78;2.65;;;24.10;55.50;;;;;;5011899;28;20030;-73
2023/09/14 07:55:34;;;;;;;3.85;2.80;;;24.20;55.60;;;;;;5013623;28;20034;-74
2023/09/14 07:57:59;;;;;;;4.65;2.70;;;24.20;55.50;;;;;;5020724;28;20167;-74
2023/09/14 08:00:25;;;;;;;3.38;2.70;;;24.20;55.50;;;;;;5028756;28;20516;-74
2023/09/14 08:02:51;;;;;;;3.47;2.55;;;24.20;55.50;;;;;;5017177;28;20111;-74
2023/09/14 08:05:17;;;;;;;5.00;2.88;;;24.30;55.50;;;;;;5015409;28;20507;-74
2023/09/14 08:07:43;;;;;;;3.53;2.67;;;24.30;55.60;;;;;;5015549;28;20030;-74
2023/09/14 08:10:09;;;;;;;3.33;2.60;;;24.30;55.60;;;;;;5016693;28;20037;-74
2023/09/14 08:12:38;;;;;;;3.65;2.63;;;24.30;55.60;;;;;;5015575;28;20434;-73
2023/09/14 08:15:04;;;;;;;4.93;2.92;;;24.30;55.70;;;;;;5015563;28;20121;-74
2023/09/14 08:17:30;;;;;;;3.05;2.50;;;24.30;55.70;;;;;;5016659;28;20022;-74
2023/09/14 08:19:56;;;;;;;3.25;2.60;;;24.40;55.80;;;;;;5016337;28;20391;-74
2023/09/14 08:22:23;;;;;;;4.88;2.67;;;24.40;55.70;;;;;;5016822;28;20034;-74
2023/09/14 08:24:52;;;;;;;3.08;2.60;;;24.40;55.70;;;;;;5017085;28;20026;-73
2023/09/14 08:27:18;;;;;;;3.03;2.67;;;24.50;55.70;;;;;;5015064;28;20040;-73
2023/09/14 08:29:44;;;;;;;3.72;2.63;;;24.50;55.70;;;;;;5015771;28;20042;-72
2023/09/14 08:32:11;;;;;;;4.95;2.58;;;24.50;55.70;;;;;;5017108;28;20033;-72
2023/09/14 08:34:36;;;;;;;3.10;2.80;;;24.50;55.70;;;;;;5015215;28;20427;-72
2023/09/14 08:37:03;;;;;;;3.67;2.97;;;24.50;55.70;;;;;;5017042;28;20053;-73
2023/09/14 08:39:28;;;;;;;3.35;2.70;;;24.40;55.70;;;;;;5016155;28;20041;-72
2023/09/14 08:41:54;;;;;;;3.00;2.60;;;24.40;55.70;;;;;;5015919;28;20034;-71
2023/09/14 08:44:22;;;;;;;3.42;2.63;;;24.40;55.70;;;;;;5016102;28;20017;-73
2023/09/14 08:46:48;;;;;;;3.88;2.60;;;24.40;55.80;;;;;;5016391;28;20472;-74
2023/09/14 08:49:18;;;;;;;3.42;2.63;;;24.40;55.90;;;;;;5016001;28;20021;-72
2023/09/14 08:51:45;;;;;;;3.17;2.70;;;24.40;55.80;;;;;;5014647;28;20034;-73
2023/09/14 08:54:12;;;;;;;3.20;2.88;;;24.40;55.90;;;;;;5014577;28;20037;-73
2023/09/14 08:56:39;;;;;;;3.17;2.80;;;24.40;56.00;;;;;;5014630;28;20026;-73
2023/09/14 08:59:06;;;;;;;3.72;2.60;;;24.40;56.00;;;;;;5016707;28;20380;-73
2023/09/14 09:01:32;;;;;;;3.70;2.95;;;24.40;56.10;;;;;;5028840;28;20431;-73
2023/09/14 09:03:58;;;;;;;2.90;2.50;;;24.40;56.10;;;;;;5034715;28;20369;-72
2023/09/14 09:06:24;;;;;;;4.72;3.05;;;24.50;56.20;;;;;;5035587;28;20036;-73
2023/09/14 09:08:49;;;;;;;3.28;2.80;;;24.50;56.10;;;;;;5034151;28;20021;-73
2023/09/14 09:11:15;;;;;;;3.15;2.78;;;24.60;56.10;;;;;;5034825;28;20107;-73
2023/09/14 09:13:44;;;;;;;3.00;2.60;;;24.60;56.00;;;;;;5033677;28;20045;-72
2023/09/14 09:16:11;;;;;;;3.67;2.90;;;24.60;56.10;;;;;;5035062;28;20460;-73
2023/09/14 09:19:07;;;;;;;2.80;2.45;;;24.60;56.00;;;;;;5035311;28;20112;-72
2023/09/14 09:21:34;;;;;;;3.63;2.50;;;24.60;56.20;;;;;;5034615;28;20044;-72
2023/09/14 09:24:03;;;;;;;5.28;2.53;;;24.60;56.10;;;;;;5035004;28;20133;-72
2023/09/14 09:26:36;;;;;;;3.05;2.58;;;24.60;56.10;;;;;;5034779;28;20087;-72
2023/09/14 09:29:22;;;;;;;2.90;2.60;;;24.70;56.20;;;;;;5033777;28;20045;-72
2023/09/14 09:31:52;;;;;;;3.85;2.65;;;24.70;56.30;;;;;;5014308;28;20075;-73
2023/09/14 09:34:31;;;;;;;3.17;2.38;;;24.70;56.20;;;;;;5015117;28;20022;-73
2023/09/14 09:36:58;;;;;;;3.35;2.75;;;24.60;56.30;;;;;;5014664;28;20096;-73
2023/09/14 09:39:24;;;;;;;2.78;2.50;;;24.70;56.30;;;;;;5015033;28;20029;-73
2023/09/14 09:41:50;;;;;;;3.22;2.50;;;24.70;56.40;;;;;;5014893;28;20460;-73
2023/09/14 09:44:18;;;;;;;2.58;2.33;;;24.60;56.30;;;;;;5013814;28;20041;-73
2023/09/14 09:46:44;;;;;;;3.65;2.80;;;24.60;56.40;;;;;;5014862;28;20033;-73
2023/09/14 09:49:18;;;;;;;3.10;2.38;;;24.60;56.50;;;;;;5014599;28;20048;-72
2023/09/14 09:51:45;;;;;;;4.35;2.58;;;24.70;56.60;;;;;;5014557;28;20034;-72
2023/09/14 09:54:11;;;;;;;3.03;2.50;;;24.60;56.60;;;;;;5013428;28;20404;-71
2023/09/14 09:56:38;;;;;;;4.15;2.58;;;24.60;56.60;;;;;;5013486;28;20029;-72
2023/09/14 09:59:09;;;;;;;3.55;2.50;;;24.60;56.60;;;;;;5015435;28;20024;-72
2023/09/14 10:01:37;;;;;;;2.60;2.40;;;24.60;56.70;;;;;;5028240;28;20033;-72
2023/09/14 10:04:08;;;;;;;3.17;2.78;;;24.60;56.70;;;;;;5033124;28;20443;-73
2023/09/14 10:06:34;;;;;;;3.10;2.38;;;24.70;56.90;;;;;;5034419;28;20371;-73
2023/09/14 10:09:06;;;;;;;2.80;2.33;;;24.70;56.90;;;;;;5033246;28;20036;-73
2023/09/14 10:11:32;;;;;;;3.00;2.20;;;24.70;56.90;;;;;;5033238;28;20052;-73
2023/09/14 10:14:02;;;;;;;2.47;2.28;;;24.70;56.90;;;;;;5032786;28;20490;-73
2023/09/14 10:16:30;;;;;;;3.50;2.60;;;24.80;57.00;;;;;;5033891;28;20034;-72
2023/09/14 10:18:57;;;;;;;4.45;2.80;;;24.80;56.90;;;;;;5034525;28;20434;-73
2023/09/14 10:21:26;;;;;;;2.80;2.50;;;24.80;57.00;;;;;;5034537;28;20029;-73
2023/09/14 10:23:53;;;;;;;4.13;2.60;;;24.90;57.00;;;;;;5032426;28;20029;-72
2023/09/14 10:26:19;;;;;;;3.53;2.50;;;24.90;56.90;;;;;;5032559;28;20079;-72
2023/09/14 10:28:46;;;;;;;2.70;2.35;;;25.00;57.00;;;;;;5033835;28;20033;-72
2023/09/14 10:31:13;;;;;;;2.75;2.40;;;25.00;56.90;;;;;;5022747;28;20517;-73
2023/09/14 10:33:43;;;;;;;2.78;2.30;;;25.00;57.00;;;;;;5012959;28;20080;-73
2023/09/14 10:36:10;;;;;;;2.55;2.20;;;25.10;57.00;;;;;;5013198;28;20033;-74
2023/09/14 10:38:42;;;;;;;3.47;2.50;;;25.10;57.00;;;;;;5014201;28;20439;-73
2023/09/14 10:41:08;;;;;;;2.90;2.28;;;25.20;57.00;;;;;;5014058;28;20143;-71
2023/09/14 10:43:33;;;;;;;2.30;2.10;;;25.20;56.90;;;;;;5012827;28;20425;-74
2023/09/14 10:46:01;;;;;;;2.40;2.17;;;25.30;56.80;;;;;;5014129;28;20460;-73
2023/09/14 10:48:29;;;;;;;2.85;2.30;;;25.30;56.80;;;;;;5014238;28;20030;-73
2023/09/14 10:50:58;;;;;;;2.30;2.10;;;25.30;56.80;;;;;;5013777;28;20037;-73
2023/09/14 10:53:24;;;;;;;2.50;2.30;;;25.40;56.90;;;;;;5013952;28;20116;-73
2023/09/14 10:55:50;;;;;;;2.40;2.20;;;25.50;56.90;;;;;;5014018;28;20512;-73
2023/09/14 10:58:16;;;;;;;3.55;2.35;;;25.50;56.80;;;;;;5014836;28;20105;-73
2023/09/14 11:00:45;;;;;;;4.15;2.60;;;25.50;56.80;;;;;;5012658;28;20073;-73
2023/09/14 11:03:12;;;;;;;2.42;2.20;;;25.50;56.70;;;;;;5024081;28;20467;-72
2023/09/14 11:05:42;;;;;;;2.83;2.50;;;25.50;56.70;;;;;;5033154;28;20036;-72
2023/09/14 11:08:09;;;;;;;2.85;2.20;;;25.60;56.80;;;;;;5033459;28;20034;-72
2023/09/14 11:10:37;;;;;;;5.00;2.25;;;25.60;56.90;;;;;;5033411;28;20033;-73
2023/09/14 11:13:20;;;;;;;2.72;2.50;;;25.60;56.90;;;;;;5033695;28;20037;-74
2023/09/14 11:16:13;;;;;;;3.05;2.13;;;25.70;57.00;;;;;;5033448;28;20025;-73
2023/09/14 11:18:45;;;;;;;2.40;2.20;;;25.70;56.90;;;;;;5021322;28;20510;-73
2023/09/14 11:21:42;;;;;;;2.42;2.22;;;25.80;56.80;;;;;;5019307;28;20104;-72
2023/09/14 11:24:09;;;;;;;2.05;1.95;;;25.90;56.90;;;;;;5033402;28;20037;-72
2023/09/14 11:26:44;;;;;;;2.50;2.30;;;25.90;56.60;;;;;;5033279;28;20084;-72
2023/09/14 11:29:10;;;;;;;3.22;2.30;;;26.00;56.60;;;;;;5033164;28;20026;-72
2023/09/14 11:31:36;;;;;;;2.72;2.40;;;26.00;56.40;;;;;;5032929;28;20091;-73
2023/09/14 11:34:10;;;;;;;2.30;2.10;;;26.10;56.40;;;;;;5033553;28;20029;-73
2023/09/14 11:36:37;;;;;;;2.22;2.03;;;26.10;56.40;;;;;;5035999;28;20464;-73
2023/09/14 11:39:10;;;;;;;2.35;2.15;;;26.10;56.30;;;;;;5022504;28;20040;-73
2023/09/14 11:41:48;;;;;;;2.50;2.20;;;26.10;56.30;;;;;;5016059;28;20069;-73
2023/09/14 11:44:15;;;;;;;2.28;2.08;;;26.10;56.20;;;;;;5017256;28;20033;-73
2023/09/14 11:46:43;;;;;;;2.40;2.20;;;26.20;56.20;;;;;;5017344;28;20022;-72
2023/09/14 11:49:10;;;;;;;2.40;2.20;;;26.20;56.00;;;;;;5017150;28;20056;-74
2023/09/14 11:51:36;;;;;;;2.50;2.30;;;26.20;56.00;;;;;;5016999;28;20080;-73
2023/09/14 11:54:07;;;;;;;3.00;2.30;;;26.10;56.00;;;;;;5017210;28;20361;-72
2023/09/14 11:56:33;;;;;;;2.58;2.00;;;26.10;56.00;;;;;;5017140;28;20022;-73
2023/09/14 11:59:00;;;;;;;2.25;2.05;;;26.10;56.10;;;;;;5017072;28;20364;-73
2023/09/14 12:01:31;;;;;;;2.40;2.20;;;26.00;56.00;;;;;;5016969;28;20113;-74
2023/09/14 12:03:58;;;;;;;2.28;2.10;;;26.10;56.10;;;;;;5025549;28;20025;-79
2023/09/14 12:06:27;;;;;;;2.83;2.00;;;26.00;56.10;;;;;;5019726;28;20030;-79
2023/09/14 12:08:53;;;;;;;2.38;2.17;;;26.10;56.20;;;;;;5027455;28;20026;-78
2023/09/14 12:11:21;;;;;;;2.05;1.88;;;26.10;56.20;;;;;;5017027;28;20041;-77
2023/09/14 12:13:55;;;;;;;2.40;2.17;;;26.10;56.10;;;;;;5016774;28;20026;-77
2023/09/14 12:16:27;;;;;;;2.58;1.80;;;26.20;56.10;;;;;;5024091;28;20032;-77
2023/09/14 12:18:53;;;;;;;2.60;2.10;;;26.30;56.00;;;;;;5036457;28;20069;-78
2023/09/14 12:21:20;;;;;;;2.00;1.90;;;26.30;55.90;;;;;;5030087;28;20057;-78
2023/09/14 12:23:51;;;;;;;2.67;2.47;;;26.40;55.90;;;;;;5015272;28;20030;-73
2023/09/14 12:26:18;;;;;;;102.68;92.63;;;26.50;55.90;;;;;;5016718;28;20025;-80
2023/09/14 12:28:51;;;;;;;4.22;3.78;;;26.50;55.70;;;;;;5015141;28;20499;-79
2023/09/14 12:31:20;;;;;;;2.63;2.43;;;26.60;55.70;;;;;;5016269;28;20064;-79
2023/09/14 12:33:46;;;;;;;2.13;1.92;;;26.60;55.70;;;;;;5016773;28;20036;-79
2023/09/14 12:36:12;;;;;;;2.38;2.03;;;26.60;55.60;;;;;;5014676;28;20034;-78
2023/09/14 12:38:39;;;;;;;2.00;1.90;;;26.60;55.50;;;;;;5016865;28;20092;-79
2023/09/14 12:41:05;;;;;;;2.03;1.85;;;26.70;55.50;;;;;;5029521;28;20117;-79
2023/09/14 12:43:32;;;;;;;2.05;1.95;;;26.70;55.50;;;;;;5034575;28;20043;-79
2023/09/14 12:45:58;;;;;;;2.20;2.00;;;26.70;55.40;;;;;;5035826;28;20029;-78